Time;durP1;ratioP1;P1;durP2;ratioP2;P2;SDS_P1;SDS_P2;PMS_P1;PMS_P2;Temp;Humidity;BMP_temperature;BMP_pressure;BME280_temperature;BME280_humidity;BME280_pressure;Samples;Min_cycle;Max_cycle;Signal;HPM_P1;HPM_P2
2023/04/23 00:00:03;;;;;;;;;;;;;;;15.04;70.53;99199.00;1083577;54;19954;-77
2023/04/23 00:01:08;;;;;;;;;;;;;;;15.01;70.53;99210.19;1083674;54;20449;-77
2023/04/23 00:02:10;;;;;;;;;;;;;;;14.98;71.10;99206.00;1083700;54;19974;-77
2023/04/23 00:03:16;;;;;;;;;;;;;;;14.95;71.25;99203.72;1083928;54;19950;-77
2023/04/23 00:04:19;;;;;;;;;;;;;;;14.91;71.16;99204.28;1083486;54;19950;-78
2023/04/23 00:05:24;;;;;;;;;;;;;;;14.91;71.36;99202.41;1083437;54;19979;-78
2023/04/23 00:06:25;;;;;;;;;;;;;;;14.88;71.44;99210.06;1083446;54;20532;-78
2023/04/23 00:07:29;;;;;;;;;;;;;;;14.88;71.15;99210.88;1085007;39;20111;-79
2023/04/23 00:08:33;;;;;;;;;;;;;;;14.87;71.67;99211.91;1083543;54;19951;-77
2023/04/23 00:09:37;;;;;;;;;;;;;;;14.87;72.04;99203.84;1083576;54;19953;-77
2023/04/23 00:10:39;;;;;;;;;;;;;;;14.85;71.88;99205.03;1083755;54;19953;-77
2023/04/23 00:11:42;;;;;;;;;;;;;;;14.84;71.85;99206.06;1083311;54;19958;-77
2023/04/23 00:12:44;;;;;;;;;;;;;;;14.81;71.75;99194.69;1083738;31;20528;-76
2023/04/23 00:13:48;;;;;;;;;;;;;;;14.81;71.57;99204.59;1083803;54;20060;-78
2023/04/23 00:14:50;;;;;;;;;;;;;;;14.82;72.33;99200.88;1083646;54;19971;-79
2023/04/23 00:15:54;;;;;;;;;;;;;;;14.80;72.46;99203.78;1082968;54;20461;-76
2023/04/23 00:16:55;;;;;;;;;;;;;;;14.82;71.85;99208.97;1082957;54;19957;-76
2023/04/23 00:17:59;;;;;;;;;;;;;;;14.87;71.66;99211.06;1082903;54;19953;-77
2023/04/23 00:19:00;;;;;;;;;;;;;;;14.87;71.28;99206.53;1082732;54;19951;-77
2023/04/23 00:20:05;;;;;;;;;;;;;;;14.84;71.54;99204.22;1082774;54;19951;-78
2023/04/23 00:21:08;;;;;;;;;;;;;;;14.82;71.90;99206.28;1082981;54;19950;-78
2023/04/23 00:22:12;;;;;;;;;;;;;;;14.82;71.98;99217.88;1082795;54;19953;-77
2023/04/23 00:23:13;;;;;;;;;;;;;;;14.84;71.76;99208.75;1082710;54;21013;-77
2023/04/23 00:24:20;;;;;;;;;;;;;;;14.87;71.37;99216.44;1082869;54;19954;-76
2023/04/23 00:25:21;;;;;;;;;;;;;;;14.90;71.39;99213.38;1082856;54;19951;-77
2023/04/23 00:26:26;;;;;;;;;;;;;;;14.87;71.28;99211.06;1082698;54;19974;-77
2023/04/23 00:27:27;;;;;;;;;;;;;;;14.79;72.02;99212.88;1082743;54;19977;-77
2023/04/23 00:28:30;;;;;;;;;;;;;;;14.86;71.42;99222.84;1082739;54;19950;-76
2023/04/23 00:29:32;;;;;;;;;;;;;;;14.77;71.21;99212.22;1082571;54;20746;-77
2023/04/23 00:30:36;;;;;;;;;;;;;;;14.72;71.42;99217.38;1082968;54;19965;-78
2023/04/23 00:31:37;;;;;;;;;;;;;;;14.73;71.68;99216.34;1082933;54;19951;-77
2023/04/23 00:32:41;;;;;;;;;;;;;;;14.70;72.03;99214.03;1082796;54;19970;-77
2023/04/23 00:33:42;;;;;;;;;;;;;;;14.70;71.72;99219.41;1082938;54;19981;-77
2023/04/23 00:34:47;;;;;;;;;;;;;;;14.72;71.69;99213.81;1082676;54;19958;-78
2023/04/23 00:35:48;;;;;;;;;;;;;;;14.71;71.73;99223.78;1082781;54;19969;-77
2023/04/23 00:36:52;;;;;;;;;;;;;;;14.75;71.79;99221.53;1082630;54;19946;-76
2023/04/23 00:37:53;;;;;;;;;;;;;;;14.77;71.26;99228.38;1082950;54;19953;-77
2023/04/23 00:38:57;;;;;;;;;;;;;;;14.67;71.32;99225.16;1082787;54;19954;-77
2023/04/23 00:40:01;;;;;;;;;;;;;;;14.62;70.71;99230.25;1082580;54;19962;-77
2023/04/23 00:41:06;;;;;;;;;;;;;;;14.65;71.36;99227.16;1082950;54;19951;-77
2023/04/23 00:42:11;;;;;;;;;;;;;;;14.58;71.00;99231.66;1082795;54;19950;-77
2023/04/23 00:43:14;;;;;;;;;;;;;;;14.58;70.71;99231.66;1083714;39;20456;-76
2023/04/23 00:44:16;;;;;;;;;;;;;;;14.61;70.67;99225.91;1082580;54;19975;-77
2023/04/23 00:45:19;;;;;;;;;;;;;;;14.59;70.59;99233.31;1082378;54;19969;-77
2023/04/23 00:46:21;;;;;;;;;;;;;;;14.64;70.41;99226.34;1082602;54;19991;-76
2023/04/23 00:47:25;;;;;;;;;;;;;;;14.57;70.74;99230.00;1083523;31;20528;-76
2023/04/23 00:48:26;;;;;;;;;;;;;;;14.59;70.59;99231.50;1083133;54;19974;-77
2023/04/23 00:49:30;;;;;;;;;;;;;;;14.57;70.99;99232.69;1083148;54;19954;-77
2023/04/23 00:50:31;;;;;;;;;;;;;;;14.38;71.61;99231.44;1083248;46;19971;-76
2023/04/23 00:51:35;;;;;;;;;;;;;;;14.50;70.88;99233.44;1084324;54;20036;-78
2023/04/23 00:52:37;;;;;;;;;;;;;;;14.51;71.00;99236.97;1085335;54;19947;-77
2023/04/23 00:53:41;;;;;;;;;;;;;;;14.48;71.09;99232.81;1086118;54;19946;-77
2023/04/23 00:54:43;;;;;;;;;;;;;;;14.33;72.23;99240.09;1086161;54;19946;-77
2023/04/23 00:55:50;;;;;;;;;;;;;;;14.35;71.66;99238.88;1085874;54;19946;-77
2023/04/23 00:56:51;;;;;;;;;;;;;;;14.26;72.68;99245.38;1084178;54;19957;-77
2023/04/23 00:58:02;;;;;;;;;;;;;;;14.18;73.00;99235.56;1083600;54;19981;-77
2023/04/23 00:59:03;;;;;;;;;;;;;;;14.08;73.90;99239.56;1083755;54;19950;-77
2023/04/23 01:00:08;;;;;;;;;;;;;;;14.11;73.75;99242.72;1085005;54;20002;-78
2023/04/23 01:01:11;;;;;;;;;;;;;;;14.17;73.44;99236.56;1085661;54;19970;-78
2023/04/23 01:02:15;;;;;;;;;;;;;;;14.00;74.90;99245.88;1085253;46;19947;-77
2023/04/23 01:03:17;;;;;;;;;;;;;;;14.01;75.06;99239.47;1085392;54;19957;-77
2023/04/23 01:04:21;;;;;;;;;;;;;;;14.03;74.63;99246.31;1085349;54;19991;-77
2023/04/23 01:05:22;;;;;;;;;;;;;;;14.00;74.72;99248.56;1085290;54;19950;-78
2023/04/23 01:06:27;;;;;;;;;;;;;;;13.97;75.41;99247.09;1085673;39;20476;-78
2023/04/23 01:07:28;;;;;;;;;;;;;;;13.97;75.32;99246.25;1085041;54;19952;-79
2023/04/23 01:08:33;;;;;;;;;;;;;;;13.83;76.46;99246.06;1085249;54;20006;-78
2023/04/23 01:09:34;;;;;;;;;;;;;;;13.88;76.13;99248.19;1085245;54;19951;-78
2023/04/23 01:10:38;;;;;;;;;;;;;;;13.83;76.63;99247.94;1084827;54;19973;-78
2023/04/23 01:11:42;;;;;;;;;;;;;;;13.78;76.81;99253.88;1084579;39;20730;-77
2023/04/23 01:12:46;;;;;;;;;;;;;;;13.63;77.90;99256.53;1083344;54;19950;-77
2023/04/23 01:13:47;;;;;;;;;;;;;;;13.66;78.01;99256.16;1083232;54;19962;-77
2023/04/23 01:14:51;;;;;;;;;;;;;;;13.64;78.48;99260.91;1083314;54;20513;-78
2023/04/23 01:15:52;;;;;;;;;;;;;;;13.67;78.40;99257.81;1083287;54;19950;-77
2023/04/23 01:16:57;;;;;;;;;;;;;;;13.63;78.50;99261.06;1083359;54;19954;-78
2023/04/23 01:17:58;;;;;;;;;;;;;;;13.64;78.36;99263.59;1083267;54;20069;-77
2023/04/23 01:19:02;;;;;;;;;;;;;;;13.60;78.88;99262.25;1083192;54;19957;-77
2023/04/23 01:20:05;;;;;;;;;;;;;;;13.69;78.04;99265.72;1082963;54;19950;-79
2023/04/23 01:21:10;;;;;;;;;;;;;;;13.64;79.28;99273.47;1083602;54;19946;-76
2023/04/23 01:22:14;;;;;;;;;;;;;;;13.72;78.33;99268.88;1083599;54;19956;-77
2023/04/23 01:23:18;;;;;;;;;;;;;;;13.73;78.10;99269.69;1083639;54;20545;-77
2023/04/23 01:24:19;;;;;;;;;;;;;;;13.56;79.65;99264.50;1083140;54;19954;-77
2023/04/23 01:25:23;;;;;;;;;;;;;;;13.45;80.50;99269.47;1083047;47;19961;-77
2023/04/23 01:26:24;;;;;;;;;;;;;;;13.57;80.18;99268.00;1082942;54;19950;-78
2023/04/23 01:27:28;;;;;;;;;;;;;;;13.64;80.46;99270.78;1082637;54;19958;-78
2023/04/23 01:28:29;;;;;;;;;;;;;;;13.46;81.18;99266.59;1083158;39;20279;-78
2023/04/23 01:29:34;;;;;;;;;;;;;;;13.39;81.73;99271.03;1082263;54;20721;-78
2023/04/23 01:30:35;;;;;;;;;;;;;;;13.26;82.88;99275.13;1082551;54;19954;-77
2023/04/23 01:31:39;;;;;;;;;;;;;;;13.12;84.38;99275.94;1082878;39;20453;-77
2023/04/23 01:32:40;;;;;;;;;;;;;;;13.14;84.66;99271.19;1082400;54;19978;-78
2023/04/23 01:33:45;;;;;;;;;;;;;;;13.14;84.73;99271.19;1082502;54;20457;-78
2023/04/23 01:34:47;;;;;;;;;;;;;;;13.19;84.70;99270.66;1082804;46;19947;-78
2023/04/23 01:35:50;;;;;;;;;;;;;;;13.07;85.51;99270.25;1082298;54;19992;-77
2023/04/23 01:36:53;;;;;;;;;;;;;;;13.01;86.57;99268.31;1082308;54;19965;-78
2023/04/23 01:38:00;;;;;;;;;;;;;;;13.00;86.53;99272.00;1082759;54;19947;-78
2023/04/23 01:39:02;;;;;;;;;;;;;;;12.96;87.00;99266.16;1082756;54;20420;-78
2023/04/23 01:40:06;;;;;;;;;;;;;;;12.89;86.87;99271.41;1083130;39;20387;-78
2023/04/23 01:41:08;;;;;;;;;;;;;;;12.83;87.51;99274.81;1082743;54;19960;-78
2023/04/23 01:42:11;;;;;;;;;;;;;;;12.95;86.78;99268.00;1082781;54;19950;-78
2023/04/23 01:43:12;;;;;;;;;;;;;;;12.93;86.55;99267.38;1082988;54;19954;-78
2023/04/23 01:44:16;;;;;;;;;;;;;;;12.99;86.77;99270.31;1082791;46;19946;-78
2023/04/23 01:45:18;;;;;;;;;;;;;;;12.92;86.62;99265.69;1082993;54;19951;-78
2023/04/23 01:46:22;;;;;;;;;;;;;;;12.89;86.78;99266.03;1083552;39;20364;-79
2023/04/23 01:47:23;;;;;;;;;;;;;;;12.86;87.36;99265.56;1082837;54;19947;-77
2023/04/23 01:48:27;;;;;;;;;;;;;;;12.89;87.20;99268.72;1082562;54;19977;-78
2023/04/23 01:49:28;;;;;;;;;;;;;;;12.99;86.71;99270.31;1082411;47;19962;-76
2023/04/23 01:50:32;;;;;;;;;;;;;;;12.89;87.49;99271.41;1084133;54;19950;-78
2023/04/23 01:51:45;;;;;;;;;;;;;;;12.96;87.14;99268.84;1084543;39;20250;-76
2023/04/23 01:52:49;;;;;;;;;;;;;;;12.99;86.81;99265.78;1083338;54;19969;-76
2023/04/23 01:53:53;;;;;;;;;;;;;;;12.99;86.35;99275.69;1084138;54;19957;-77
2023/04/23 01:54:56;;;;;;;;;;;;;;;12.97;86.38;99275.88;1083791;54;19977;-77
2023/04/23 01:55:59;;;;;;;;;;;;;;;13.02;86.00;99280.72;1084290;39;20307;-76
2023/04/23 01:57:03;;;;;;;;;;;;;;;13.00;86.38;99270.13;1083913;54;19947;-76
2023/04/23 01:58:05;;;;;;;;;;;;;;;13.05;86.22;99285.69;1083985;54;19951;-77
2023/04/23 01:59:09;;;;;;;;;;;;;;;13.09;85.80;99279.78;1083733;54;20002;-77
2023/04/23 02:00:11;;;;;;;;;;;;;;;13.14;85.32;99279.25;1083793;54;19951;-76
2023/04/23 02:01:15;;;;;;;;;;;;;;;13.09;85.99;99276.28;1084464;39;20836;-76
2023/04/23 02:02:16;;;;;;;;;;;;;;;13.00;86.52;99280.88;1084117;54;19998;-76
2023/04/23 02:03:20;;;;;;;;;;;;;;;12.99;86.18;99283.75;1083962;39;20171;-76
2023/04/23 02:04:21;;;;;;;;;;;;;;;13.00;86.31;99275.50;1083996;54;19973;-76
2023/04/23 02:05:25;;;;;;;;;;;;;;;13.03;86.20;99282.38;1084044;54;19947;-76
2023/04/23 02:06:26;;;;;;;;;;;;;;;13.01;86.12;99281.72;1083884;47;19946;-76
2023/04/23 02:07:30;;;;;;;;;;;;;;;13.00;85.95;99278.19;1083883;54;20465;-76
2023/04/23 02:08:31;;;;;;;;;;;;;;;13.09;85.89;99287.84;1083837;46;19981;-76
2023/04/23 02:09:38;;;;;;;;;;;;;;;13.00;86.10;99288.09;1085982;39;20295;-77
2023/04/23 02:10:39;;;;;;;;;;;;;;;12.96;86.85;99287.63;1084022;54;19970;-76
2023/04/23 02:11:43;;;;;;;;;;;;;;;13.00;86.21;99288.91;1084090;54;19950;-76
2023/04/23 02:12:44;;;;;;;;;;;;;;;13.00;86.24;99294.28;1084011;54;19950;-77
2023/04/23 02:13:48;;;;;;;;;;;;;;;13.01;86.30;99289.78;1083722;54;20006;-76
2023/04/23 02:14:49;;;;;;;;;;;;;;;12.99;86.50;99286.44;1083582;54;19950;-76
2023/04/23 02:15:53;;;;;;;;;;;;;;;12.97;86.57;99296.50;1084033;54;19958;-76
2023/04/23 02:16:56;;;;;;;;;;;;;;;12.98;86.39;99295.47;1084094;54;19946;-78
2023/04/23 02:18:00;;;;;;;;;;;;;;;12.97;86.53;99293.81;1083595;54;19946;-77
2023/04/23 02:19:01;;;;;;;;;;;;;;;12.93;87.14;99291.50;1082028;54;19957;-76
2023/04/23 02:20:05;;;;;;;;;;;;;;;12.98;86.68;99295.47;1081942;54;20038;-76
2023/04/23 02:21:06;;;;;;;;;;;;;;;12.94;86.84;99295.84;1083572;54;19947;-76
2023/04/23 02:22:10;;;;;;;;;;;;;;;12.93;87.20;99296.88;1084240;54;20026;-76
2023/04/23 02:23:12;;;;;;;;;;;;;;;12.97;87.01;99293.81;1083979;54;19973;-76
2023/04/23 02:24:19;;;;;;;;;;;;;;;12.92;86.98;99297.03;1084577;46;19950;-75
2023/04/23 02:25:23;;;;;;;;;;;;;;;12.96;86.93;99298.34;1083554;54;19957;-76
2023/04/23 02:26:27;;;;;;;;;;;;;;;12.96;87.20;99298.34;1083737;54;19947;-75
2023/04/23 02:27:29;;;;;;;;;;;;;;;13.02;86.59;99294.13;1084134;46;19951;-75
2023/04/23 02:28:32;;;;;;;;;;;;;;;13.06;86.42;99292.75;1084108;54;19970;-76
2023/04/23 02:29:35;;;;;;;;;;;;;;;13.08;86.26;99298.75;1085875;31;20493;-75
2023/04/23 02:30:44;;;;;;;;;;;;;;;13.07;86.25;99294.41;1084498;54;19957;-77
2023/04/23 02:31:45;;;;;;;;;;;;;;;13.02;86.45;99297.63;1084427;54;19958;-77
2023/04/23 02:32:48;;;;;;;;;;;;;;;13.02;86.58;99297.63;1084549;54;19954;-77
2023/04/23 02:33:50;;;;;;;;;;;;;;;13.09;86.07;99289.72;1085083;39;20467;-76
2023/04/23 02:34:54;;;;;;;;;;;;;;;13.07;86.18;99299.78;1084133;54;19953;-77
2023/04/23 02:35:55;;;;;;;;;;;;;;;13.02;86.37;99292.25;1085024;54;19942;-76
2023/04/23 02:36:59;;;;;;;;;;;;;;;13.06;86.43;99296.28;1083854;54;19947;-75
2023/04/23 02:38:00;;;;;;;;;;;;;;;13.04;86.53;99290.25;1084257;46;19966;-76
2023/04/23 02:39:03;;;;;;;;;;;;;;;13.08;85.63;99296.09;1083813;54;19958;-76
2023/04/23 02:40:05;;;;;;;;;;;;;;;13.00;86.52;99288.91;1084159;54;19946;-76
2023/04/23 02:41:12;;;;;;;;;;;;;;;13.08;85.82;99288.84;1083757;54;19981;-76
2023/04/23 02:42:13;;;;;;;;;;;;;;;13.10;85.53;99292.19;1083588;54;19951;-77
2023/04/23 02:43:17;;;;;;;;;;;;;;;13.10;85.57;99292.19;1083686;54;19951;-77
2023/04/23 02:44:18;;;;;;;;;;;;;;;13.13;85.15;99293.69;1083460;54;19950;-78
2023/04/23 02:45:21;;;;;;;;;;;;;;;13.10;85.55;99294.06;1083624;54;19973;-76
2023/04/23 02:46:22;;;;;;;;;;;;;;;13.12;85.24;99284.00;1083488;54;20441;-76
2023/04/23 02:47:26;;;;;;;;;;;;;;;13.11;84.82;99293.03;1083552;54;19969;-76
2023/04/23 02:48:28;;;;;;;;;;;;;;;13.08;85.59;99288.84;1083661;54;20039;-76
2023/04/23 02:49:32;;;;;;;;;;;;;;;13.06;85.52;99292.75;1083645;54;19951;-77
2023/04/23 02:50:33;;;;;;;;;;;;;;;12.98;85.62;99300.84;1084665;47;20469;-75
2023/04/23 02:51:38;;;;;;;;;;;;;;;12.95;85.79;99300.19;1085172;54;19946;-76
2023/04/23 02:52:39;;;;;;;;;;;;;;;12.97;85.59;99293.81;1084768;54;19950;-77
2023/04/23 02:53:42;;;;;;;;;;;;;;;12.99;85.41;99297.16;1082037;54;19950;-76
2023/04/23 02:54:43;;;;;;;;;;;;;;;12.94;85.47;99305.75;1082139;54;19958;-77
2023/04/23 02:55:47;;;;;;;;;;;;;;;13.02;85.41;99299.50;1082403;54;19953;-76
2023/04/23 02:56:51;;;;;;;;;;;;;;;13.03;85.03;99296.63;1082388;54;20395;-78
2023/04/23 02:57:55;;;;;;;;;;;;;;;13.01;85.37;99300.50;1083065;54;19946;-76
2023/04/23 02:58:56;;;;;;;;;;;;;;;13.01;84.86;99295.13;1083821;54;20456;-78
2023/04/23 02:59:59;;;;;;;;;;;;;;;13.02;85.18;99303.00;1083757;54;19951;-77
2023/04/23 03:01:01;;;;;;;;;;;;;;;13.05;84.83;99299.13;1084469;54;19947;-80
2023/04/23 03:02:05;;;;;;;;;;;;;;;13.05;85.01;99296.44;1086774;54;19950;-78
2023/04/23 03:03:06;;;;;;;;;;;;;;;13.08;84.75;99288.03;1086919;54;19947;-78
2023/04/23 03:04:11;;;;;;;;;;;;;;;13.06;84.73;99293.59;1086749;54;20006;-78
2023/04/23 03:05:12;;;;;;;;;;;;;;;13.05;84.63;99291.91;1086554;46;19957;-77
2023/04/23 03:06:16;;;;;;;;;;;;;;;13.05;84.41;99296.44;1087594;54;19950;-79
2023/04/23 03:07:17;;;;;;;;;;;;;;;13.07;84.44;99295.25;1087058;54;19950;-77
2023/04/23 03:08:21;;;;;;;;;;;;;;;13.08;84.50;99298.75;1086983;54;19942;-75
2023/04/23 03:09:22;;;;;;;;;;;;;;;13.07;84.42;99289.03;1087260;54;19942;-79
2023/04/23 03:10:26;;;;;;;;;;;;;;;13.07;84.72;99299.78;1087724;46;19942;-76
2023/04/23 03:11:27;;;;;;;;;;;;;;;13.06;84.56;99298.09;1087542;54;19942;-79
2023/04/23 03:12:33;;;;;;;;;;;;;;;13.04;84.55;99297.44;1087427;54;19951;-75
2023/04/23 03:13:34;;;;;;;;;;;;;;;12.99;84.94;99292.63;1087300;54;19938;-78
2023/04/23 03:14:38;;;;;;;;;;;;;;;13.03;84.72;99295.78;1086328;54;20026;-78
2023/04/23 03:15:40;;;;;;;;;;;;;;;13.07;84.29;99291.72;1087119;54;19956;-76
2023/04/23 03:16:43;;;;;;;;;;;;;;;13.08;84.33;99294.22;1087138;54;19983;-77
2023/04/23 03:17:44;;;;;;;;;;;;;;;13.09;84.40;99292.38;1087560;46;19946;-76
2023/04/23 03:18:48;;;;;;;;;;;;;;;13.10;83.91;99289.50;1087398;46;19942;-78
2023/04/23 03:19:49;;;;;;;;;;;;;;;13.07;84.31;99289.91;1087214;54;19946;-77
2023/04/23 03:20:53;;;;;;;;;;;;;;;13.11;84.07;99285.81;1087437;54;19943;-75
2023/04/23 03:21:54;;;;;;;;;;;;;;;13.19;83.64;99284.06;1087480;54;19957;-76
2023/04/23 03:22:58;;;;;;;;;;;;;;;13.10;83.93;99277.97;1087759;54;19946;-76
2023/04/23 03:24:00;;;;;;;;;;;;;;;13.06;84.09;99284.69;1087657;54;19951;-78
2023/04/23 03:25:03;;;;;;;;;;;;;;;13.04;83.73;99282.19;1087719;54;19951;-76
2023/04/23 03:26:04;;;;;;;;;;;;;;;13.06;83.71;99282.00;1087247;54;19950;-75
2023/04/23 03:27:08;;;;;;;;;;;;;;;13.06;83.81;99279.31;1087930;39;20451;-76
2023/04/23 03:28:12;;;;;;;;;;;;;;;13.15;83.42;99272.88;1086425;54;19942;-76
2023/04/23 03:29:16;;;;;;;;;;;;;;;13.19;83.06;99276.88;1086599;54;19954;-75
2023/04/23 03:30:17;;;;;;;;;;;;;;;13.17;82.82;99272.72;1084925;54;19950;-76
2023/04/23 03:31:21;;;;;;;;;;;;;;;13.08;83.24;99274.63;1084107;54;19973;-75
2023/04/23 03:32:23;;;;;;;;;;;;;;;13.10;83.72;99272.59;1084652;54;19950;-76
2023/04/23 03:33:27;;;;;;;;;;;;;;;13.09;83.41;99273.59;1084232;54;19950;-76
2023/04/23 03:34:28;;;;;;;;;;;;;;;13.21;82.87;99269.50;1084612;39;20561;-76
2023/04/23 03:35:32;;;;;;;;;;;;;;;13.18;82.14;99275.22;1083636;54;19998;-75
2023/04/23 03:36:36;;;;;;;;;;;;;;;13.07;82.55;99281.00;1083935;54;19958;-76
2023/04/23 03:37:37;;;;;;;;;;;;;;;13.19;82.77;99276.03;1084035;54;19977;-76
2023/04/23 03:38:40;;;;;;;;;;;;;;;13.20;82.97;99283.91;1083957;54;19946;-76
2023/04/23 03:39:41;;;;;;;;;;;;;;;13.15;82.54;99274.75;1084359;54;19969;-76
2023/04/23 03:40:45;;;;;;;;;;;;;;;13.07;82.87;99279.16;1084693;39;20314;-76
2023/04/23 03:41:46;;;;;;;;;;;;;;;13.07;82.95;99278.31;1084562;54;19947;-77
2023/04/23 03:42:50;;;;;;;;;;;;;;;13.04;82.98;99274.16;1084087;54;19947;-76
2023/04/23 03:43:54;;;;;;;;;;;;;;;13.08;83.27;99275.44;1084807;54;19951;-76
2023/04/23 03:44:58;;;;;;;;;;;;;;;13.02;83.33;99276.16;1085002;54;19982;-76
2023/04/23 03:45:59;;;;;;;;;;;;;;;13.00;83.44;99282.72;1083718;54;20016;-76
2023/04/23 03:47:03;;;;;;;;;;;;;;;13.04;83.18;99284.03;1083603;54;19951;-75
2023/04/23 03:48:05;;;;;;;;;;;;;;;13.08;83.34;99286.16;1083948;54;19969;-75
2023/04/23 03:49:09;;;;;;;;;;;;;;;13.10;83.08;99283.31;1084428;54;19950;-75
2023/04/23 03:50:11;;;;;;;;;;;;;;;13.13;82.48;99280.25;1084166;54;19951;-75
2023/04/23 03:51:15;;;;;;;;;;;;;;;13.14;82.91;99281.13;1084091;54;19950;-75
2023/04/23 03:52:16;;;;;;;;;;;;;;;13.15;82.37;99280.09;1084308;54;19974;-75
2023/04/23 03:53:20;;;;;;;;;;;;;;;13.17;82.72;99289.63;1084368;54;20077;-75
2023/04/23 03:54:23;;;;;;;;;;;;;;;13.15;82.15;99280.94;1084166;54;19970;-76
2023/04/23 03:55:27;;;;;;;;;;;;;;;13.15;81.92;99285.47;1084670;54;19946;-76
2023/04/23 03:56:28;;;;;;;;;;;;;;;13.15;82.45;99280.94;1084652;54;19950;-76
2023/04/23 03:57:32;;;;;;;;;;;;;;;13.15;81.98;99288.16;1084153;54;19994;-75
2023/04/23 03:58:33;;;;;;;;;;;;;;;13.09;82.36;99282.47;1084004;54;19958;-75
2023/04/23 03:59:40;;;;;;;;;;;;;;;13.11;82.58;99285.00;1084277;54;19946;-75
2023/04/23 04:00:41;;;;;;;;;;;;;;;13.19;82.38;99292.13;1083801;54;19974;-75
2023/04/23 04:01:47;;;;;;;;;;;;;;;13.08;82.15;99288.84;1084323;54;19958;-75
2023/04/23 04:02:48;;;;;;;;;;;;;;;13.07;82.36;99284.53;1084502;54;19970;-76
2023/04/23 04:03:52;;;;;;;;;;;;;;;13.15;82.05;99283.59;1084201;54;19951;-75
2023/04/23 04:04:53;;;;;;;;;;;;;;;13.13;81.93;99288.31;1084104;54;19990;-75
2023/04/23 04:05:57;;;;;;;;;;;;;;;13.09;82.45;99287.84;1084230;54;19946;-76
2023/04/23 04:06:59;;;;;;;;;;;;;;;13.10;82.38;99294.06;1084095;54;19946;-75
2023/04/23 04:08:03;;;;;;;;;;;;;;;13.13;82.38;99293.69;1084280;54;19977;-76
2023/04/23 04:09:06;;;;;;;;;;;;;;;13.12;82.30;99289.34;1084151;54;19946;-76
2023/04/23 04:10:11;;;;;;;;;;;;;;;13.13;82.54;99292.84;1084119;54;19947;-76
2023/04/23 04:11:13;;;;;;;;;;;;;;;13.04;82.62;99287.56;1084186;54;19962;-75
2023/04/23 04:12:17;;;;;;;;;;;;;;;13.04;82.74;99290.25;1084504;47;19981;-75
2023/04/23 04:13:19;;;;;;;;;;;;;;;13.03;83.18;99291.25;1084730;46;19977;-75
2023/04/23 04:14:24;;;;;;;;;;;;;;;13.08;82.75;99290.72;1084029;54;19950;-75
2023/04/23 04:15:28;;;;;;;;;;;;;;;13.04;82.87;99287.56;1083836;54;19998;-75
2023/04/23 04:16:33;;;;;;;;;;;;;;;13.03;82.49;99293.94;1084471;54;20346;-75
2023/04/23 04:17:34;;;;;;;;;;;;;;;13.03;82.56;99293.13;1084500;47;19974;-76
2023/04/23 04:18:38;;;;;;;;;;;;;;;13.01;82.49;99295.13;1084322;54;19951;-75
2023/04/23 04:19:39;;;;;;;;;;;;;;;12.98;82.78;99285.59;1084098;54;19998;-75
2023/04/23 04:20:45;;;;;;;;;;;;;;;12.94;83.20;99295.84;1084545;54;19946;-76
2023/04/23 04:21:46;;;;;;;;;;;;;;;13.01;83.16;99289.78;1084907;54;19951;-75
2023/04/23 04:22:50;;;;;;;;;;;;;;;12.99;83.21;99297.16;1084805;54;19946;-75
2023/04/23 04:23:52;;;;;;;;;;;;;;;12.90;83.26;99297.22;1084808;54;20006;-75
2023/04/23 04:24:56;;;;;;;;;;;;;;;12.88;83.59;99293.88;1084622;54;19947;-76
2023/04/23 04:25:58;;;;;;;;;;;;;;;12.89;83.41;99295.53;1083913;54;19955;-75
2023/04/23 04:27:03;;;;;;;;;;;;;;;12.84;83.54;99297.09;1083762;54;19973;-75
2023/04/23 04:28:06;;;;;;;;;;;;;;;12.94;83.00;99295.00;1083841;54;20516;-75
2023/04/23 04:29:10;;;;;;;;;;;;;;;13.05;82.62;99299.97;1084125;54;19947;-75
2023/04/23 04:30:13;;;;;;;;;;;;;;;13.04;82.34;99300.13;1084286;54;19951;-75
2023/04/23 04:31:21;;;;;;;;;;;;;;;13.03;82.25;99295.78;1084256;54;19946;-76
2023/04/23 04:32:23;;;;;;;;;;;;;;;12.92;82.23;99295.19;1084246;54;20061;-76
2023/04/23 04:33:27;;;;;;;;;;;;;;;12.92;82.39;99297.88;1084262;54;19959;-76
2023/04/23 04:34:29;;;;;;;;;;;;;;;12.92;82.36;99300.56;1084217;54;20006;-76
2023/04/23 04:35:34;;;;;;;;;;;;;;;12.98;82.13;99307.06;1083778;54;19958;-75
2023/04/23 04:36:35;;;;;;;;;;;;;;;13.01;81.83;99306.69;1084093;54;19950;-75
2023/04/23 04:37:40;;;;;;;;;;;;;;;13.06;81.84;99308.84;1083848;54;19963;-76
2023/04/23 04:38:43;;;;;;;;;;;;;;;13.04;81.61;99313.53;1084060;54;19958;-75
2023/04/23 04:39:47;;;;;;;;;;;;;;;13.02;82.00;99313.72;1083937;54;19950;-75
2023/04/23 04:40:49;;;;;;;;;;;;;;;13.06;82.07;99319.56;1083940;54;19950;-75
2023/04/23 04:41:53;;;;;;;;;;;;;;;13.02;82.17;99316.41;1083950;54;19958;-75
2023/04/23 04:42:54;;;;;;;;;;;;;;;13.13;81.68;99314.31;1084186;46;20434;-75
2023/04/23 04:43:58;;;;;;;;;;;;;;;13.18;81.38;99315.47;1083656;54;19950;-75
2023/04/23 04:44:59;;;;;;;;;;;;;;;13.10;80.77;99316.34;1083708;54;19951;-76
2023/04/23 04:46:03;;;;;;;;;;;;;;;13.06;81.58;99322.25;1083673;54;19947;-75
2023/04/23 04:47:07;;;;;;;;;;;;;;;13.02;81.79;99320.97;1084001;54;19954;-75
2023/04/23 04:48:11;;;;;;;;;;;;;;;12.92;81.79;99318.50;1083912;54;19950;-76
2023/04/23 04:49:12;;;;;;;;;;;;;;;12.93;82.09;99321.00;1084235;46;19947;-75
2023/04/23 04:50:16;;;;;;;;;;;;;;;12.91;81.91;99317.66;1084116;54;19957;-79
2023/04/23 04:51:17;;;;;;;;;;;;;;;12.80;82.08;99313.53;1084502;46;19969;-77
2023/04/23 04:52:21;;;;;;;;;;;;;;;12.83;82.55;99319.56;1084590;39;20383;-76
2023/04/23 04:53:22;;;;;;;;;;;;;;;12.87;82.31;99319.03;1084174;54;20015;-76
2023/04/23 04:54:26;;;;;;;;;;;;;;;12.83;82.84;99324.91;1084186;54;19947;-76
2023/04/23 04:55:27;;;;;;;;;;;;;;;12.84;82.74;99316.72;1083952;54;19947;-76
2023/04/23 04:56:31;;;;;;;;;;;;;;;12.90;82.48;99324.03;1084335;54;19946;-76
2023/04/23 04:57:32;;;;;;;;;;;;;;;12.96;81.74;99322.50;1083960;54;19947;-76
2023/04/23 04:58:36;;;;;;;;;;;;;;;12.93;82.17;99315.66;1084403;54;19947;-76
2023/04/23 04:59:40;;;;;;;;;;;;;;;12.92;81.68;99319.34;1084223;54;19946;-75
2023/04/23 05:00:41;;;;;;;;;;;;;;;12.95;81.85;99318.97;1083477;54;19946;-75
2023/04/23 05:01:45;;;;;;;;;;;;;;;12.92;81.90;99313.97;1083939;54;20058;-75
2023/04/23 05:02:49;;;;;;;;;;;;;;;12.91;81.88;99324.88;1083758;54;19950;-74
2023/04/23 05:03:53;;;;;;;;;;;;;;;12.96;81.67;99325.19;1083976;54;20014;-76
2023/04/23 05:04:54;;;;;;;;;;;;;;;12.91;81.99;99325.72;1083814;54;19950;-75
2023/04/23 05:05:58;;;;;;;;;;;;;;;12.89;82.00;99326.91;1083772;54;20045;-76
2023/04/23 05:06:59;;;;;;;;;;;;;;;12.91;81.96;99322.19;1084113;54;19978;-76
2023/04/23 05:08:03;;;;;;;;;;;;;;;12.90;82.19;99321.38;1084081;54;19947;-76
2023/04/23 05:09:04;;;;;;;;;;;;;;;12.92;81.77;99321.16;1083504;54;19954;-75
2023/04/23 05:10:09;;;;;;;;;;;;;;;12.96;81.52;99314.44;1084177;39;20291;-76
2023/04/23 05:11:10;;;;;;;;;;;;;;;12.94;81.87;99322.66;1083893;54;19973;-76
2023/04/23 05:12:14;;;;;;;;;;;;;;;12.89;81.72;99322.38;1083989;54;19946;-75
2023/04/23 05:13:15;;;;;;;;;;;;;;;12.91;82.10;99323.03;1084007;46;19953;-76
2023/04/23 05:14:19;;;;;;;;;;;;;;;12.99;81.79;99326.66;1084286;47;19950;-75
2023/04/23 05:15:20;;;;;;;;;;;;;;;13.02;81.46;99326.31;1084587;54;19954;-76
2023/04/23 05:16:24;;;;;;;;;;;;;;;12.99;81.84;99324.81;1084599;54;20339;-76
2023/04/23 05:17:25;;;;;;;;;;;;;;;12.95;81.79;99327.00;1082376;54;19954;-76
2023/04/23 05:18:31;;;;;;;;;;;;;;;13.00;81.54;99325.66;1082660;39;20354;-77
2023/04/23 05:19:33;;;;;;;;;;;;;;;13.07;81.44;99331.97;1081718;54;19989;-76
2023/04/23 05:20:37;;;;;;;;;;;;;;;13.08;81.17;99328.28;1081953;54;19970;-77
2023/04/23 05:21:38;;;;;;;;;;;;;;;13.03;81.28;99330.69;1082396;39;20424;-76
2023/04/23 05:22:43;;;;;;;;;;;;;;;13.12;80.29;99324.25;1081915;54;19950;-77
2023/04/23 05:23:44;;;;;;;;;;;;;;;13.14;80.17;99321.38;1081801;54;19950;-77
2023/04/23 05:24:48;;;;;;;;;;;;;;;13.18;79.99;99328.03;1082028;54;19951;-77
2023/04/23 05:25:52;;;;;;;;;;;;;;;13.15;79.67;99323.88;1081879;54;20065;-77
2023/04/23 05:26:56;;;;;;;;;;;;;;;13.01;79.90;99321.97;1081927;54;20827;-76
2023/04/23 05:27:57;;;;;;;;;;;;;;;13.00;80.01;99323.78;1081902;54;19950;-77